createdAt,value
2023-02-23T00:02:10.039Z,7.80
2023-02-23T00:05:51.786Z,7.80
2023-02-23T00:09:36.729Z,7.80
2023-02-23T00:13:18.524Z,7.90
2023-02-23T00:17:00.548Z,7.80
2023-02-23T00:20:46.098Z,7.80
2023-02-23T00:24:28.069Z,7.70
2023-02-23T00:28:10.164Z,7.70
2023-02-23T00:31:52.675Z,7.70
2023-02-23T00:35:34.486Z,7.70
2023-02-23T00:39:22.127Z,7.60
2023-02-23T00:43:03.929Z,7.60
2023-02-23T00:46:49.219Z,7.60
2023-02-23T00:50:30.956Z,7.60
2023-02-23T00:54:13.951Z,7.60
2023-02-23T00:57:55.801Z,7.60
2023-02-23T01:01:38.544Z,7.60
2023-02-23T01:05:22.170Z,7.60
2023-02-23T01:09:11.806Z,7.60
2023-02-23T01:12:53.872Z,7.60
2023-02-23T01:16:35.729Z,7.60
2023-02-23T01:20:19.045Z,7.60
2023-02-23T01:24:02.347Z,7.60
2023-02-23T01:27:45.268Z,7.70
2023-02-23T01:31:28.634Z,7.70
2023-02-23T01:35:12.661Z,7.70
2023-02-23T01:38:56.507Z,7.70
2023-02-23T01:42:39.235Z,7.70
2023-02-23T01:46:21.061Z,7.70
2023-02-23T01:50:02.931Z,7.70
2023-02-23T01:53:54.901Z,7.70
2023-02-23T01:57:36.775Z,7.70
2023-02-23T02:01:19.359Z,7.70
2023-02-23T02:05:04.670Z,7.70
2023-02-23T02:08:54.592Z,7.70
2023-02-23T02:12:36.488Z,7.70
2023-02-23T02:16:28.265Z,7.70
2023-02-23T02:20:32.980Z,7.70
2023-02-23T02:24:48.357Z,7.70
2023-02-23T02:28:42.016Z,7.70
2023-02-23T02:32:53.136Z,7.70
2023-02-23T02:37:08.274Z,7.70
2023-02-23T02:41:08.549Z,7.70
2023-02-23T02:44:59.850Z,7.60
2023-02-23T02:48:49.787Z,7.60
2023-02-23T02:52:41.230Z,7.60
2023-02-23T02:56:26.503Z,7.60
2023-02-23T03:00:27.657Z,7.60
2023-02-23T03:04:40.198Z,7.60
2023-02-23T03:08:40.720Z,7.60
2023-02-23T03:12:53.007Z,7.50
2023-02-23T03:17:04.209Z,7.60
2023-02-23T03:21:10.961Z,7.60
2023-02-23T03:25:29.646Z,7.50
2023-02-23T03:29:43.933Z,7.50
2023-02-23T03:34:10.602Z,7.50
2023-02-23T03:38:27.205Z,7.40
2023-02-23T03:42:33.259Z,7.40
2023-02-23T03:46:37.001Z,7.40
2023-02-23T03:50:48.403Z,7.40
2023-02-23T03:54:59.420Z,7.40
2023-02-23T03:59:05.994Z,7.40
2023-02-23T04:03:10.140Z,7.30
2023-02-23T04:07:13.395Z,7.30
2023-02-23T04:11:21.513Z,7.30
2023-02-23T04:15:25.424Z,7.30
2023-02-23T04:19:07.269Z,7.30
2023-02-23T04:22:49.007Z,7.30
2023-02-23T04:26:30.878Z,7.30
2023-02-23T04:30:12.897Z,7.30
2023-02-23T04:33:54.628Z,7.30
2023-02-23T04:37:36.341Z,7.20
2023-02-23T04:41:18.862Z,7.20
2023-02-23T04:45:00.825Z,7.20
2023-02-23T04:48:42.608Z,7.20
2023-02-23T04:52:24.338Z,7.20
2023-02-23T04:56:06.550Z,7.20
2023-02-23T04:59:48.325Z,7.20
2023-02-23T05:03:30.042Z,7.10
2023-02-23T05:07:11.761Z,7.10
2023-02-23T05:10:53.474Z,7.10
2023-02-23T05:14:35.494Z,7.00
2023-02-23T05:18:17.448Z,7.00
2023-02-23T05:21:59.187Z,7.00
2023-02-23T05:25:40.892Z,7.10
2023-02-23T05:29:22.613Z,7.10
2023-02-23T05:33:04.392Z,7.10
2023-02-23T05:36:46.192Z,7.10
2023-02-23T05:40:27.934Z,7.00
2023-02-23T05:44:10.111Z,7.00
2023-02-23T05:47:52.532Z,7.10
2023-02-23T05:51:34.974Z,7.10
2023-02-23T05:55:17.037Z,7.10
2023-02-23T05:58:59.151Z,7.00
2023-02-23T06:02:41.772Z,7.00
2023-02-23T06:06:25.450Z,7.00
2023-02-23T06:10:07.720Z,7.00
2023-02-23T06:13:49.863Z,7.00
2023-02-23T06:17:32.091Z,6.90
2023-02-23T06:21:14.638Z,6.90
2023-02-23T06:24:56.925Z,6.90
2023-02-23T06:28:38.712Z,6.90
2023-02-23T06:32:20.509Z,6.90
2023-02-23T06:36:02.268Z,6.90
2023-02-23T06:39:43.997Z,6.90
2023-02-23T06:43:25.757Z,6.80
2023-02-23T06:47:07.696Z,6.80
2023-02-23T06:50:49.477Z,6.80
2023-02-23T06:54:31.315Z,6.80
2023-02-23T06:58:13.076Z,6.80
2023-02-23T07:01:54.814Z,6.80
2023-02-23T07:05:37.057Z,6.80
2023-02-23T07:09:18.890Z,6.80
2023-02-23T07:13:00.864Z,6.80
2023-02-23T07:16:42.702Z,6.90
2023-02-23T07:20:24.497Z,6.90
2023-02-23T07:24:06.506Z,6.90
2023-02-23T07:27:48.362Z,6.90
2023-02-23T07:31:30.207Z,6.90
2023-02-23T07:35:12.106Z,6.90
2023-02-23T07:38:54.319Z,6.90
2023-02-23T07:42:36.115Z,7.00
2023-02-23T07:46:18.123Z,7.00
2023-02-23T07:50:02.432Z,7.00
2023-02-23T07:53:44.941Z,7.00
2023-02-23T07:57:26.911Z,7.00
2023-02-23T08:01:10.424Z,7.00
2023-02-23T08:04:54.400Z,7.00
2023-02-23T08:08:36.122Z,7.00
2023-02-23T08:12:18.105Z,7.00
2023-02-23T08:16:00.146Z,7.00
2023-02-23T08:19:41.899Z,7.10
2023-02-23T08:23:23.728Z,7.10
2023-02-23T08:27:05.499Z,7.20
2023-02-23T08:30:47.335Z,7.10
2023-02-23T08:34:29.287Z,7.20
2023-02-23T08:38:11.180Z,7.20
2023-02-23T08:41:55.595Z,7.20
2023-02-23T08:45:38.663Z,7.30
2023-02-23T08:49:20.434Z,7.30
2023-02-23T08:53:02.264Z,7.30
2023-02-23T08:56:45.072Z,7.30
2023-02-23T09:00:26.963Z,7.40
2023-02-23T09:04:09.049Z,7.40
2023-02-23T09:07:50.928Z,7.50
2023-02-23T09:11:33.059Z,7.50
2023-02-23T09:15:14.874Z,7.50
2023-02-23T09:18:59.705Z,7.50
2023-02-23T09:22:48.563Z,7.60
2023-02-23T09:26:31.776Z,7.60
2023-02-23T09:30:17.697Z,7.60
2023-02-23T09:34:03.456Z,7.70
2023-02-23T09:37:48.037Z,7.60
2023-02-23T09:41:51.033Z,7.60
2023-02-23T09:45:32.704Z,7.60
2023-02-23T09:49:19.819Z,7.60
2023-02-23T09:53:29.241Z,7.60
2023-02-23T09:57:24.157Z,7.60
2023-02-23T10:01:19.271Z,7.60
2023-02-23T10:05:05.358Z,7.60
2023-02-23T10:09:11.413Z,7.70
2023-02-23T10:13:21.869Z,7.70
2023-02-23T10:17:15.393Z,7.80
2023-02-23T10:21:10.663Z,7.80
2023-02-23T10:24:56.286Z,7.90
2023-02-23T10:28:39.018Z,8.00
2023-02-23T10:32:24.885Z,7.90
2023-02-23T10:36:28.076Z,8.00
2023-02-23T10:40:18.176Z,8.00
2023-02-23T10:44:10.955Z,8.00
2023-02-23T10:48:08.788Z,8.10
2023-02-23T10:51:52.344Z,8.10
2023-02-23T10:55:34.265Z,8.10
2023-02-23T10:59:20.623Z,8.20
2023-02-23T11:03:04.427Z,8.20
2023-02-23T11:06:46.534Z,8.10
2023-02-23T11:10:29.132Z,8.20
2023-02-23T11:14:17.252Z,8.30
2023-02-23T11:18:04.650Z,8.30
2023-02-23T11:21:51.991Z,8.40
2023-02-23T11:25:33.682Z,8.50
2023-02-23T11:29:37.242Z,8.50
2023-02-23T11:33:31.551Z,8.60
2023-02-23T11:37:25.540Z,8.70
2023-02-23T11:41:19.708Z,8.80
2023-02-23T11:45:16.838Z,8.80
2023-02-23T11:49:04.091Z,8.80
2023-02-23T11:52:45.760Z,8.80
2023-02-23T11:56:30.673Z,8.90
2023-02-23T12:00:22.298Z,8.80
2023-02-23T12:04:04.549Z,8.80
2023-02-23T12:07:49.973Z,8.80
2023-02-23T12:11:37.485Z,8.80
2023-02-23T12:15:36.430Z,8.80
2023-02-23T12:19:34.395Z,8.80
2023-02-23T12:23:22.489Z,8.90
2023-02-23T12:27:06.431Z,8.90
2023-02-23T12:30:56.749Z,8.90
2023-02-23T12:34:51.760Z,8.90
2023-02-23T12:39:11.171Z,8.90
2023-02-23T12:43:26.697Z,9.00
2023-02-23T12:47:32.814Z,9.00
2023-02-23T12:51:36.537Z,9.00
2023-02-23T12:55:27.937Z,8.90
2023-02-23T12:59:46.435Z,8.90
2023-02-23T13:03:46.131Z,8.90
2023-02-23T13:07:49.013Z,8.90
2023-02-23T13:11:40.205Z,8.90
2023-02-23T13:15:49.681Z,8.80
2023-02-23T13:19:34.262Z,8.90
2023-02-23T13:23:36.812Z,8.80
2023-02-23T13:27:27.561Z,8.80
2023-02-23T13:31:25.113Z,8.80
2023-02-23T13:35:19.126Z,8.90
2023-02-23T13:39:22.452Z,8.90
2023-02-23T13:43:17.561Z,8.80
2023-02-23T13:47:35.008Z,8.90
2023-02-23T13:51:26.907Z,8.90
2023-02-23T13:55:27.383Z,8.90
2023-02-23T13:59:20.726Z,8.90
2023-02-23T14:03:05.699Z,8.90
2023-02-23T14:07:12.607Z,8.90
2023-02-23T14:10:57.266Z,8.90
2023-02-23T14:14:42.361Z,8.90
2023-02-23T14:18:28.543Z,9.00
2023-02-23T14:22:15.687Z,8.90
2023-02-23T14:26:30.027Z,8.90
2023-02-23T14:30:14.115Z,9.00
2023-02-23T14:34:00.047Z,8.90
2023-02-23T14:37:43.120Z,9.00
2023-02-23T14:41:42.908Z,9.00
2023-02-23T14:45:46.236Z,8.90
2023-02-23T14:49:32.616Z,9.00
2023-02-23T14:53:22.753Z,9.00
2023-02-23T14:57:20.318Z,9.00
2023-02-23T15:01:02.095Z,8.90
2023-02-23T15:04:43.896Z,8.90
2023-02-23T15:08:28.974Z,8.90
2023-02-23T15:12:18.283Z,8.90
2023-02-23T15:16:14.565Z,8.90
2023-02-23T15:20:15.927Z,8.90
2023-02-23T15:24:13.399Z,8.90
2023-02-23T15:27:56.030Z,8.90
2023-02-23T15:31:40.856Z,8.90
2023-02-23T15:35:22.973Z,8.90
2023-02-23T15:39:07.536Z,8.80
2023-02-23T15:42:55.614Z,8.80
2023-02-23T15:46:38.038Z,8.80
2023-02-23T15:50:34.843Z,8.80
2023-02-23T15:54:29.668Z,8.80
2023-02-23T15:58:41.841Z,8.70
2023-02-23T16:02:26.551Z,8.80
2023-02-23T16:06:30.844Z,8.70
2023-02-23T16:10:22.290Z,8.80
2023-02-23T16:14:05.695Z,8.80
2023-02-23T16:17:53.455Z,8.80
2023-02-23T16:21:38.502Z,8.80
2023-02-23T16:25:21.214Z,8.80
2023-02-23T16:29:04.652Z,8.80
2023-02-23T16:32:46.542Z,8.80
2023-02-23T16:36:41.067Z,8.80
2023-02-23T16:40:22.958Z,8.90
2023-02-23T16:44:07.094Z,8.90
2023-02-23T16:47:48.935Z,8.90
2023-02-23T16:51:33.973Z,8.80
2023-02-23T16:55:17.866Z,8.80
2023-02-23T16:59:02.910Z,8.70
2023-02-23T17:02:45.502Z,8.60
2023-02-23T17:06:27.772Z,8.50
2023-02-23T17:10:24.984Z,8.50
2023-02-23T17:14:07.233Z,8.40
2023-02-23T17:17:49.030Z,8.30
2023-02-23T17:21:31.751Z,8.20
2023-02-23T17:25:13.610Z,8.10
2023-02-23T17:28:55.426Z,8.00
2023-02-23T17:32:37.428Z,7.90
2023-02-23T17:36:19.596Z,7.80
2023-02-23T17:40:01.326Z,7.70
2023-02-23T17:43:43.419Z,7.50
2023-02-23T17:47:25.184Z,7.40
2023-02-23T17:51:12.009Z,7.30
2023-02-23T17:54:55.395Z,7.20
2023-02-23T17:58:38.284Z,7.10
2023-02-23T18:02:21.528Z,7.00
2023-02-23T18:06:10.607Z,6.90
2023-02-23T18:09:52.558Z,6.80
2023-02-23T18:13:34.456Z,6.70
2023-02-23T18:17:16.868Z,6.70
2023-02-23T18:21:00.448Z,6.60
2023-02-23T18:24:42.503Z,6.50
2023-02-23T18:28:24.223Z,6.40
2023-02-23T18:32:08.025Z,6.40
2023-02-23T18:35:49.952Z,6.30
2023-02-23T18:39:33.276Z,6.20
2023-02-23T18:43:15.336Z,6.10
2023-02-23T18:46:57.126Z,6.10
2023-02-23T18:50:40.060Z,6.00
2023-02-23T18:54:22.416Z,5.90
2023-02-23T18:58:05.714Z,5.80
2023-02-23T19:01:49.085Z,5.80
2023-02-23T19:05:30.891Z,5.70
2023-02-23T19:09:14.630Z,5.60
2023-02-23T19:12:56.958Z,5.60
2023-02-23T19:16:39.237Z,5.50
2023-02-23T19:20:23.174Z,5.50
2023-02-23T19:24:05.800Z,5.40
2023-02-23T19:27:47.545Z,5.30
2023-02-23T19:31:29.540Z,5.30
2023-02-23T19:35:14.891Z,5.20
2023-02-23T19:39:05.958Z,5.10
2023-02-23T19:42:49.565Z,5.10
2023-02-23T19:46:31.432Z,5.00
2023-02-23T19:50:16.908Z,4.90
2023-02-23T19:53:58.952Z,4.90
2023-02-23T19:57:41.002Z,4.80
2023-02-23T20:01:27.312Z,4.70
2023-02-23T20:05:11.425Z,4.60
2023-02-23T20:08:55.064Z,4.50
2023-02-23T20:12:37.299Z,4.50
2023-02-23T20:16:19.372Z,4.50
2023-02-23T20:20:01.782Z,4.30
2023-02-23T20:23:45.274Z,4.30
2023-02-23T20:27:29.909Z,4.20
2023-02-23T20:31:14.154Z,4.10
2023-02-23T20:35:00.644Z,4.10
2023-02-23T20:38:43.905Z,4.00
2023-02-23T20:42:29.931Z,3.90
2023-02-23T20:46:14.035Z,3.90
2023-02-23T20:49:55.929Z,3.80
2023-02-23T20:53:37.762Z,3.70
2023-02-23T20:57:19.552Z,3.60
2023-02-23T21:01:05.699Z,3.50
2023-02-23T21:04:47.532Z,3.40
2023-02-23T21:08:30.486Z,3.40
2023-02-23T21:12:13.868Z,3.30
2023-02-23T21:16:00.986Z,3.30
2023-02-23T21:19:43.185Z,3.20
2023-02-23T21:23:25.954Z,3.10
2023-02-23T21:27:12.758Z,3.10
2023-02-23T21:30:54.606Z,3.00
2023-02-23T21:34:37.100Z,2.90
2023-02-23T21:38:18.936Z,2.90
2023-02-23T21:42:00.871Z,2.80
2023-02-23T21:45:46.616Z,2.80
2023-02-23T21:49:28.492Z,2.70
2023-02-23T21:53:10.325Z,2.70
2023-02-23T21:56:52.216Z,2.70
2023-02-23T22:00:35.836Z,2.60
2023-02-23T22:04:17.726Z,2.60
2023-02-23T22:07:59.596Z,2.50
2023-02-23T22:11:45.625Z,2.40
2023-02-23T22:15:27.721Z,2.40
2023-02-23T22:19:11.914Z,2.30
2023-02-23T22:22:53.689Z,2.20
2023-02-23T22:26:37.649Z,2.20
2023-02-23T22:30:22.441Z,2.10
2023-02-23T22:34:06.144Z,2.00
2023-02-23T22:37:48.271Z,2.00
2023-02-23T22:41:30.029Z,2.00
2023-02-23T22:45:12.090Z,1.90
2023-02-23T22:48:53.889Z,1.90
2023-02-23T22:52:36.097Z,1.80
2023-02-23T22:56:19.290Z,1.80
2023-02-23T23:00:07.062Z,1.70
2023-02-23T23:03:49.025Z,1.70
2023-02-23T23:07:33.210Z,1.70
2023-02-23T23:11:19.765Z,1.60
2023-02-23T23:15:03.923Z,1.60
2023-02-23T23:18:55.062Z,1.50
2023-02-23T23:22:38.326Z,1.50
2023-02-23T23:26:21.506Z,1.50
2023-02-23T23:30:05.782Z,1.40
2023-02-23T23:33:48.621Z,1.40
2023-02-23T23:37:30.403Z,1.40
2023-02-23T23:41:15.884Z,1.30
2023-02-23T23:44:57.640Z,1.20
2023-02-23T23:48:39.440Z,1.10
2023-02-23T23:52:21.202Z,1.00
2023-02-23T23:56:09.129Z,1.00
2023-02-23T23:59:51.330Z,1.00
